Aérodrome :
LOGIN :

S'inscrire | Disclaimer

   EN    FR    IT 

 










Légende :    VFR   VFR Marginal   IFR   IFR Intensif   IFR Très Intensif
Visi : 
Plafond : 
>= 8 km
>= 3000ft
5 à 8 km
1000 à 3000 ft
1500m à 5 km
500 à 1000 ft
800 à 1500m
200 à 500 ft
< 800m
< 200 ft
Symboles :   Orages  Brouillard  Fortes neiges  Fortes précipitations  Vent > 20 kt
SIGMETs :   Divers  Orages  Givrage  Turbulence  Onde Orograph.  Cendres Volcan.






- Altitude de l'aérodrome : 69 ft
- Code IATA : AES


ENAL - Ålesund

DERNIER METAR :
  • 201420Z 24021KT 9999 BKN011 13/11 Q1017

METARs EXPIRÉS :
  • 201350Z 25021KT 9999 FEW004 SCT007 BKN012 13/11 Q1017
  • 201320Z 25022KT 9999 SCT004 BKN009 12/12 Q1017
  • 201250Z 24023KT 9999 -DZ FEW006 SCT008 BKN017 13/12 Q1017
  • 201220Z 25019KT 9000 -RA SCT005 BKN008 12/12 Q1017
  • 201150Z 24020KT 9999 -RA FEW005 SCT008 BKN011 13/12 Q1017
  • 201120Z 23017KT 9999 -RADZ FEW006 SCT009 BKN013 13/11 Q1017

TAF TAF ENAL
Valide du 20 à 12h jusqu'au 20 à 21h UTC


201100Z 2012/2021 23020KT 8000 -RA SCT007 BKN015
TEMPO 2012/2021 25025G35KT
TEMPO 2012/2018 4000 -DZ BR BKN008
TEMPO 2018/2021 BKN012



MET'MAP, la Météo Aéronautique d'un coup d'oeil ! - Copyright ORBIFLY Décembre 2007 - Disclaimer

ORBIFLY MET'MAP TEAM :

Programmation & Développement : Alexandra Zaïnal
Sur une idée originale de : Baudouin d'Aumeries
Assistance à la programmation : Marc-Olivier Méhu
Soutien technique & logistique : Manuel Goepfert

Contact : metmap@orbifly.com




SOURCES & CREDITS :

   NOAA